METAR Data
IDs: Format: Raw Decoded Include TAF

Data at: 0624 UTC 24 Sep 2020

METAR for:K0CO (Berthoud Pass, CO, US)
Text:K0CO 240615Z AUTO 31017G24KT 10SM CLR 02/M07 A3063 RMK AO2 PWINO
Temperature: 2.0°C ( 36°F)
Dewpoint: -7.0°C ( 19°F) [RH = 51%]
Pressure (altimeter):30.63 inches Hg (1037.3 mb)
Winds:from the NW (310 degrees) at 20 MPH (17 knots; 8.7 m/s) gusting to 28 MPH (24 knots; 12.3 m/s)
Visibility:10 or more sm (16+ km)
Ceiling:at least 12,000 feet AGL
Clouds:sky clear below 12,000 feet AGL
QC Flag:automated observation with no human augmentation